Florence, Mississippi
Current Conditions -  °F | °C
As of 4:54 PM on Saturday 22 Nov 2014 (Local Time) from KJAN Reporting Station
Broken Clouds Broken Clouds  
Wind Chill: 18°   Ceiling: 20000
Heat Index: 18°   Visibility: 10mi
Dew Point: 10°   Wind: 7mph
Humidity: 60%   Direction: 140°SE
Pressure: 30.05"   Gusts: NA
Location:  32.15°N, 90.13°W
Report Text: KJAN 222254Z 14006KT 10SM BKN200 18/10 A3005 RMK AO2 SLP174 T01780100
Loading
Personal Weather Stations






























Interactive Weather Map New forecast layout! Learn more

10-Day Weather Forecast

Advertisements
Track Severe Weather on mobile